सभी
Lake Jindabyne Water Ala Airport YLJY मौसम
There is no TAF data available at YLJY. Showing TAF data for YCOM (21 mi E).
OOM Terminal Area Forecast (no data for YLJY)
| Here is the undecoded forecast: 2026/05/05 20:21 YCOM 052021Z 0520/0608 05010KT CAVOK FM060100 35010KT CAVOK PROB40 0520/0522 0300 FG NSC RMK T 01 09 15 16 Q 1020 1021 1019 1016 |
There is no METAR data available at YLJY. Showing METAR data for YCOM (21 mi E).
Recent OOM METAR history (no data for YLJY)
| Date | Time (AEST) | Flight Rules | Wind Dir. | Speed | Type | Height AGL (ft) | Visibility | Temp (°C) | Temp (°F) | Dew Point (°C) | Dew Point (°F) | Rel. Humid. | Pressure | Density Altitude | Remarks |
|---|---|---|---|---|---|---|---|---|---|---|---|---|---|---|---|
| 06-मई | 11:00 | VFR | 40° | 11 kt | 10000 meters | 13° | 55° | 6° | 42° | 62% | 1020 mb | 3,378 ft | |||
| 06-मई | 10:00 | VFR | 40° | 10 kt | 10000 meters | 10° | 50° | 6° | 42° | 76% | 1020 mb | 3,018 ft | |||
| 06-मई | 09:00 | VFR | 40° | 12 kt | 10000 meters | 6° | 42° | 6° | 42° | 100% | 1021 mb | 2,509 ft | |||
| 06-मई | 08:00 | VFR | 50° | 10 kt | 10000 meters | 3° | 37° | 3° | 37° | 100% | 1021 mb | 2,149 ft | |||
| 06-मई | 07:00 | VFR | 50° | 9 kt | 10000 meters | 1° | 33° | 1° | 33° | 100% | 1021 mb | 1,909 ft | |||
| 06-मई | 06:00 | VFR | 50° | 10 kt | 10000 meters |
1° | 33° | 1° | 33° | 100% | 1020 mb | 1,938 ft | |||
| 06-मई | 05:00 | BCAT1 | 30° | 6 kt | Broken |
100 |
600 meters |
-2° | 28° | -2° | 28° | 100% | 1021 mb | 1,549 ft | |
| 06-मई | 04:00 | VFR | 10° | 4 kt | 9000 meters |
-2° | 28° | -2° | 28° | 100% | 1021 mb | 1,549 ft | |||
| 06-मई | 03:00 | VFR | 10° | 3 kt | 10000 meters | -1° | 30° | -1° | 30° | 100% | 1021 mb | 1,669 ft | |||
| 06-मई | 02:00 | VFR | 20° | 2 kt | 10000 meters | -1° | 30° | -1° | 30° | 100% | 1021 mb | 1,669 ft | |||
| 06-मई | 01:00 | VFR | 220° | 5 kt | 10000 meters | 0° | 32° | 0° | 32° | 100% | 1022 mb | 1,759 ft | |||
| 06-मई | 00:00 | VFR | Calm | 10000 meters | 0° | 32° | 0° | 32° | 100% | 1022 mb | 1,759 ft | ||||
| 05-मई | 23:00 | VFR | 130° | 1 kt | 10000 meters | 2° | 35° | 2° | 35° | 100% | 1022 mb | 1,999 ft | |||
| 05-मई | 22:00 | VFR | Calm | 10000 meters | 2° | 35° | 2° | 35° | 100% | 1022 mb | 1,999 ft | ||||
| 05-मई | 21:00 | VFR | Calm | 10000 meters | 2° | 35° | 1° | 33° | 93% | 1022 mb | 1,999 ft | ||||
| 05-मई | 20:00 | VFR | Calm | 10000 meters | 3° | 37° | 2° | 35° | 93% | 1022 mb | 2,119 ft | ||||
| 05-मई | 19:00 | VFR | Calm | 10000 meters | 4° | 39° | 2° | 35° | 87% | 1021 mb | 2,269 ft | ||||
| 05-मई | 18:00 | VFR | 290° | 1 kt | 10000 meters | 7° | 44° | 4° | 39° | 81% | 1020 mb | 2,658 ft | |||
| 05-मई | 17:00 | VFR | 200° | 9 kt | 10000 meters | 11° | 51° | 5° | 41° | 66% | 1019 mb | 3,168 ft | |||
| 05-मई | 16:00 | VFR | 200° | 9 kt | 10000 meters | 14° | 57° | 4° | 39° | 51% | 1019 mb | 3,528 ft | |||
| 05-मई | 15:00 | VFR | 210° | 9 kt | 10000 meters | 16° | 60° | 3° | 37° | 42% | 1018 mb | 3,797 ft | |||
| 05-मई | 14:00 | VFR | 200° | 8 kt | 10000 meters | 16° | 60° | 3° | 37° | 42% | 1018 mb | 3,797 ft | |||
| 05-मई | 13:00 | VFR | 200° | 6 kt | 10000 meters | 15° | 59° | 2° | 35° | 41% | 1018 mb | 3,677 ft | |||
| 05-मई | 12:00 | VFR | 220° | 3 kt | 10000 meters | 15° | 59° | 2° | 35° | 41% | 1018 mb | 3,677 ft |
लॉगिन
| Your browser is unsupported. अपना ब्राऊजर अपग्रेड करें |
